Time;durP1;ratioP1;P1;durP2;ratioP2;P2;SDS_P1;SDS_P2;PMS_P1;PMS_P2;Temp;Humidity;BMP_temperature;BMP_pressure;BME280_temperature;BME280_humidity;BME280_pressure;Samples;Min_cycle;Max_cycle;Signal;HPM_P1;HPM_P2
2023/01/30 00:00:32;;;;;;;;;35.25;31.50;;;;;7.45;64.82;102126.03;2069791;28;46277;-63
2023/01/30 00:01:33;;;;;;;;;35.80;34.40;;;;;7.45;65.22;102133.94;2069549;28;47314;-63
2023/01/30 00:02:33;;;;;;;;;34.80;32.60;;;;;7.44;65.11;102119.84;2069374;28;46940;-63
2023/01/30 00:03:34;;;;;;;;;31.75;30.25;;;;;7.47;64.86;102119.00;2083978;27;46889;-63
2023/01/30 00:04:34;;;;;;;;;32.25;30.25;;;;;7.47;65.14;102126.94;2065806;28;46561;-63
2023/01/30 00:05:34;;;;;;;;;35.75;31.00;;;;;7.47;65.03;102125.19;2065094;28;46533;-63
2023/01/30 00:06:35;;;;;;;;;30.50;29.75;;;;;7.48;64.68;102126.94;2067065;28;46718;-63
2023/01/30 00:07:35;;;;;;;;;32.25;29.50;;;;;7.48;64.88;102123.41;2057447;28;45424;-64
2023/01/30 00:08:35;;;;;;;;;31.00;25.75;;;;;7.48;65.04;102131.34;2062360;28;46369;-63
2023/01/30 00:09:36;;;;;;;;;38.00;35.00;;;;;7.48;64.96;102128.69;2063804;28;46779;-64
2023/01/30 00:10:36;;;;;;;;;33.50;32.50;;;;;7.47;64.71;102126.94;2069352;28;46871;-63
2023/01/30 00:11:36;;;;;;;;;31.00;30.25;;;;;7.47;64.86;102126.94;2069729;28;46536;-63
2023/01/30 00:12:37;;;;;;;;;33.00;33.00;;;;;7.47;65.19;102129.56;2069803;28;45800;-63
2023/01/30 00:13:38;;;;;;;;;33.00;31.50;;;;;7.49;65.12;102125.19;2067356;28;46490;-63
2023/01/30 00:14:38;;;;;;;;;32.00;30.40;;;;;7.49;65.14;102127.84;2069219;28;46222;-63
2023/01/30 00:15:39;;;;;;;;;29.50;28.75;;;;;7.51;65.12;102128.78;2065827;28;46865;-63
2023/01/30 00:16:41;;;;;;;;;32.60;28.00;;;;;7.51;65.00;102116.44;2061590;28;46634;-63
2023/01/30 00:17:41;;;;;;;;;36.80;31.00;;;;;7.52;65.18;102112.06;2069242;28;46616;-64
2023/01/30 00:18:42;;;;;;;;;36.50;33.00;;;;;7.53;65.44;102111.19;2066352;28;46176;-64
2023/01/30 00:19:43;;;;;;;;;36.75;30.25;;;;;7.53;65.08;102109.41;2061338;28;46638;-64
2023/01/30 00:20:43;;;;;;;;;31.50;29.75;;;;;7.54;64.96;102116.47;2067725;28;46571;-66
2023/01/30 00:21:43;;;;;;;;;32.00;30.50;;;;;7.54;65.09;102105.03;2069917;28;45763;-64
2023/01/30 00:22:43;;;;;;;;;32.75;29.50;;;;;7.54;64.98;102105.91;2069525;28;46345;-63
2023/01/30 00:23:44;;;;;;;;;35.50;31.75;;;;;7.55;64.98;102107.69;2064734;28;45742;-64
2023/01/30 00:24:45;;;;;;;;;29.00;26.25;;;;;7.55;65.17;102098.88;2061296;28;46782;-63
2023/01/30 00:25:45;;;;;;;;;36.75;33.50;;;;;7.54;65.25;102100.63;2069215;28;46660;-65
2023/01/30 00:26:45;;;;;;;;;35.75;31.25;;;;;7.53;65.19;102098.84;2069138;28;46130;-64
2023/01/30 00:27:46;;;;;;;;;37.00;34.25;;;;;7.52;65.21;102094.44;2069581;28;46301;-64
2023/01/30 00:28:46;;;;;;;;;28.50;28.50;;;;;7.54;65.32;102094.47;2069822;28;46488;-64
2023/01/30 00:29:46;;;;;;;;;35.50;33.25;;;;;7.55;65.19;102093.59;2060987;28;46314;-64
2023/01/30 00:30:51;;;;;;;;;36.00;32.25;;;;;7.55;64.97;102093.59;2061325;28;46993;-62
2023/01/30 00:31:51;;;;;;;;;35.40;33.60;;;;;7.55;64.84;102089.19;2069520;28;46602;-64
2023/01/30 00:32:58;;;;;;;;;29.75;26.50;;;;;7.56;64.92;102087.44;2067417;28;46641;-62
2023/01/30 00:33:58;;;;;;;;;28.80;26.20;;;;;7.55;65.39;102086.56;2061026;28;45516;-63
2023/01/30 00:34:59;;;;;;;;;35.50;31.25;;;;;7.56;65.02;102082.16;2048422;28;45508;-63
2023/01/30 00:36:00;;;;;;;;;38.75;33.25;;;;;7.56;64.96;102079.50;2052517;28;46708;-63
2023/01/30 00:37:00;;;;;;;;;34.00;32.20;;;;;7.57;65.19;102083.94;2075583;28;46310;-63
2023/01/30 00:38:01;;;;;;;;;34.00;32.00;;;;;7.59;64.89;102076.91;2075476;28;46897;-63
2023/01/30 00:39:01;;;;;;;;;39.00;35.25;;;;;7.58;64.73;102078.66;2069442;28;46510;-63
2023/01/30 00:40:01;;;;;;;;;28.75;26.25;;;;;7.58;65.03;102078.66;2074942;28;46628;-64
2023/01/30 00:41:02;;;;;;;;;32.25;32.25;;;;;7.59;65.25;102093.63;2077718;28;45197;-64
2023/01/30 00:47:21;;;;;;;;;29.80;28.20;;;;;7.56;64.95;102074.22;2072323;27;46585;-64
2023/01/30 00:48:21;;;;;;;;;32.00;31.20;;;;;7.55;64.96;102070.69;2112172;27;46515;-64
2023/01/30 00:49:22;;;;;;;;;27.00;27.00;;;;;7.54;65.08;102062.75;2104987;27;46289;-63
2023/01/30 00:50:22;;;;;;;;;36.00;31.25;;;;;7.53;64.97;102055.72;2111394;27;46017;-64
2023/01/30 00:51:22;;;;;;;;;23.00;23.00;;;;;7.52;64.78;102060.09;2106824;27;46593;-63
2023/01/30 00:52:23;;;;;;;;;35.25;29.75;;;;;7.51;65.17;102058.34;2105056;27;46264;-64
2023/01/30 00:53:23;;;;;;;;;29.25;24.50;;;;;7.52;65.10;102059.22;2113190;27;46321;-62
2023/01/30 00:54:24;;;;;;;;;26.25;25.25;;;;;7.52;65.00;102057.47;2105263;27;46749;-64
2023/01/30 00:55:24;;;;;;;;;30.25;28.00;;;;;7.51;64.89;102058.34;2096353;28;45551;-64
2023/01/30 00:56:24;;;;;;;;;32.00;28.25;;;;;7.52;65.22;102057.47;2103013;28;45862;-64
2023/01/30 00:57:25;;;;;;;;;32.00;27.00;;;;;7.52;64.92;102046.00;2100456;28;45554;-63
2023/01/30 00:58:25;;;;;;;;;31.00;29.75;;;;;7.52;64.99;102052.19;2069665;27;46354;-65
2023/01/30 00:59:26;;;;;;;;;33.00;29.00;;;;;7.53;65.01;102042.50;2076100;28;46845;-64
2023/01/30 01:00:27;;;;;;;;;33.60;30.00;;;;;7.52;64.99;102036.34;2085851;27;46397;-62
2023/01/30 01:01:27;;;;;;;;;30.00;27.75;;;;;7.54;65.10;102041.63;2112492;27;46243;-63
2023/01/30 01:02:27;;;;;;;;;22.00;15.75;;;;;7.53;65.04;102038.09;2096891;28;46158;-63
2023/01/30 01:03:28;;;;;;;;;27.00;27.00;;;;;7.54;64.86;102041.63;2073739;28;46201;-63
2023/01/30 01:04:28;;;;;;;;;29.75;29.00;;;;;7.55;65.06;102043.41;2087554;28;46339;-62
2023/01/30 01:05:28;;;;;;;;;29.75;29.00;;;;;7.54;64.90;102042.50;2080183;28;46341;-63
2023/01/30 01:06:29;;;;;;;;;26.50;24.25;;;;;7.55;64.95;102040.75;2074470;28;46177;-64
2023/01/30 01:07:29;;;;;;;;;29.50;25.25;;;;;7.55;65.22;102036.34;2095957;28;46685;-63
2023/01/30 01:08:29;;;;;;;;;17.75;16.50;;;;;7.55;65.18;102044.28;2101183;27;46721;-64
2023/01/30 01:09:30;;;;;;;;;30.25;29.25;;;;;7.56;65.46;102035.50;2064890;28;46705;-64
2023/01/30 01:10:31;;;;;;;;;36.25;32.50;;;;;7.57;65.13;102039.00;2073547;27;45238;-62
2023/01/30 01:11:32;;;;;;;;;31.60;29.40;;;;;7.59;65.11;102035.50;2079446;27;46360;-63
2023/01/30 01:12:32;;;;;;;;;31.75;31.00;;;;;7.61;64.75;102025.84;2078970;27;46362;-63
2023/01/30 01:13:32;;;;;;;;;34.75;33.75;;;;;7.61;64.99;102033.78;2089506;27;45525;-62
2023/01/30 01:14:33;;;;;;;;;34.25;26.50;;;;;7.60;64.90;102029.38;2113950;27;46375;-64
2023/01/30 01:15:33;;;;;;;;;31.00;26.50;;;;;7.62;64.98;102026.72;2110701;27;46100;-64
2023/01/30 01:16:34;;;;;;;;;29.00;27.50;;;;;7.63;65.18;102021.50;2111212;27;46660;-64
2023/01/30 01:17:35;;;;;;;;;31.40;30.00;;;;;7.64;64.93;102031.19;2113522;27;46658;-64
2023/01/30 01:18:35;;;;;;;;;31.50;28.50;;;;;7.65;65.17;102022.38;2110993;27;46436;-62
2023/01/30 01:19:36;;;;;;;;;27.00;26.25;;;;;7.65;64.93;102019.75;2098282;27;47122;-62
2023/01/30 01:20:36;;;;;;;;;32.75;29.75;;;;;7.66;64.90;102024.16;2083316;27;46337;-62
2023/01/30 01:21:36;;;;;;;;;36.25;31.00;;;;;7.68;65.01;102017.13;2084390;27;46258;-62
2023/01/30 01:22:37;;;;;;;;;34.75;30.75;;;;;7.70;64.77;102016.25;2105148;28;46239;-63
2023/01/30 01:23:37;;;;;;;;;34.00;31.00;;;;;7.70;64.95;102013.63;2105593;27;46390;-63
2023/01/30 01:24:37;;;;;;;;;26.50;26.50;;;;;7.70;64.74;102017.16;2110176;27;47184;-63
2023/01/30 01:25:38;;;;;;;;;33.50;31.25;;;;;7.71;64.95;102007.47;2113970;27;46664;-62
2023/01/30 01:26:38;;;;;;;;;31.25;26.75;;;;;7.72;64.74;102006.59;2094095;27;46634;-63
2023/01/30 01:27:39;;;;;;;;;33.50;28.25;;;;;7.71;65.00;102005.72;2079119;28;46750;-64
2023/01/30 01:28:39;;;;;;;;;28.75;28.25;;;;;7.71;65.03;101996.91;2080510;27;46253;-63
2023/01/30 01:29:39;;;;;;;;;30.25;25.75;;;;;7.71;64.88;102002.19;2080621;27;46105;-64
2023/01/30 01:30:40;;;;;;;;;37.75;31.50;;;;;7.71;64.86;102012.75;2078665;28;46604;-63
2023/01/30 01:31:41;;;;;;;;;34.75;32.25;;;;;7.71;64.87;102007.47;2080334;27;46904;-62
2023/01/30 01:32:42;;;;;;;;;24.20;23.60;;;;;7.70;65.06;102006.56;2076511;27;46971;-62
2023/01/30 01:33:42;;;;;;;;;33.00;28.00;;;;;7.71;64.71;101997.78;2078652;28;46792;-63
2023/01/30 01:34:43;;;;;;;;;32.75;28.25;;;;;7.71;64.89;102011.00;2080488;27;46415;-62
2023/01/30 01:35:43;;;;;;;;;32.25;29.75;;;;;7.72;64.81;102001.31;2077878;28;46282;-63
2023/01/30 01:36:43;;;;;;;;;31.50;29.25;;;;;7.72;64.93;102003.94;2077803;27;46667;-63
2023/01/30 01:37:45;;;;;;;;;30.75;30.75;;;;;7.72;64.64;102006.59;2070207;28;45528;-63
2023/01/30 01:38:45;;;;;;;;;30.40;29.40;;;;;7.73;64.54;102009.25;2069792;28;46952;-62
2023/01/30 01:41:08;;;;;;;;;28.80;28.80;;;;;7.73;64.51;102011.88;2077065;27;47092;-63
2023/01/30 01:42:09;;;;;;;;;23.60;20.80;;;;;7.73;64.31;102003.97;2070202;28;46736;-63
2023/01/30 01:43:21;;;;;;;;;25.50;21.50;;;;;7.73;64.67;102005.72;2079793;27;46177;-63
2023/01/30 01:44:23;;;;;;;;;27.20;27.00;;;;;7.72;64.37;101996.91;2078377;27;46540;-61
2023/01/30 01:45:24;;;;;;;;;28.60;26.80;;;;;7.73;64.21;102008.34;2078489;28;46480;-64
2023/01/30 01:46:47;;;;;;;;;30.75;24.75;;;;;7.70;64.51;102003.94;2069344;27;46545;-64
2023/01/30 01:48:11;;;;;;;;;30.20;28.20;;;;;7.70;64.37;102001.28;2092012;27;46537;-63
2023/01/30 01:49:16;;;;;;;;;31.00;28.60;;;;;7.68;64.60;101985.44;2107206;27;46794;-63
2023/01/30 01:50:42;;;;;;;;;30.60;27.00;;;;;7.67;64.35;101991.59;2104540;28;45154;-62
2023/01/30 01:52:06;;;;;;;;;27.60;24.20;;;;;7.66;64.09;101994.22;2082019;28;46793;-63
2023/01/30 01:53:09;;;;;;;;;28.40;25.60;;;;;7.64;64.25;101996.84;2086976;28;45699;-63
2023/01/30 01:54:18;;;;;;;;;31.40;29.80;;;;;7.63;64.34;101999.47;2080853;28;46803;-63
2023/01/30 01:55:22;;;;;;;;;31.00;29.00;;;;;7.61;64.41;101996.78;2080850;28;46608;-63
2023/01/30 01:56:23;;;;;;;;;29.20;25.60;;;;;7.61;64.72;102007.34;2087650;28;46382;-62
2023/01/30 01:57:42;;;;;;;;;32.60;29.60;;;;;7.62;64.60;102000.31;2080305;28;46980;-63
2023/01/30 01:58:52;;;;;;;;;30.60;29.20;;;;;7.60;64.30;101997.66;2074732;28;46341;-64
2023/01/30 02:00:00;;;;;;;;;27.00;25.60;;;;;7.59;64.21;102003.81;2044195;28;46437;-62
2023/01/30 02:01:01;;;;;;;;;29.40;28.80;;;;;7.57;64.85;101994.09;2080829;28;46414;-62
2023/01/30 02:02:07;;;;;;;;;26.25;26.25;;;;;7.56;64.45;101987.94;2076525;28;45616;-61
2023/01/30 02:03:13;;;;;;;;;26.80;26.00;;;;;7.56;64.24;101995.88;2054743;28;46351;-61
2023/01/30 02:05:00;;;;;;;;;25.00;24.00;;;;;7.56;64.34;101992.34;2075711;28;45605;-62
2023/01/30 02:05:40;;;;;;;;;27.60;27.40;;;;;7.54;64.86;101988.78;2061870;28;46477;-61
2023/01/30 02:06:41;;;;;;;;;30.40;30.20;;;;;7.55;64.71;101988.81;2045459;28;46207;-63
2023/01/30 02:07:49;;;;;;;;;29.20;25.40;;;;;7.55;64.42;101987.94;2079264;28;45271;-61
2023/01/30 02:08:54;;;;;;;;;24.00;24.00;;;;;7.55;64.92;101988.81;2066124;28;46632;-63
2023/01/30 02:09:55;;;;;;;;;29.00;25.40;;;;;7.55;64.65;101986.16;2042084;28;46605;-62
2023/01/30 02:11:18;;;;;;;;;24.75;21.75;;;;;7.55;64.59;101987.94;2086906;28;46438;-61
2023/01/30 02:12:18;;;;;;;;;28.60;28.20;;;;;7.55;64.75;101990.56;2084957;28;46691;-61
2023/01/30 02:13:19;;;;;;;;;28.50;25.00;;;;;7.56;64.69;101995.88;2084215;28;47022;-62
2023/01/30 02:14:20;;;;;;;;;29.75;27.00;;;;;7.56;64.69;101987.94;2086791;28;47041;-64
2023/01/30 02:15:20;;;;;;;;;24.00;24.00;;;;;7.56;64.61;101995.88;2084883;28;46591;-63
2023/01/30 02:16:21;;;;;;;;;28.25;26.00;;;;;7.57;64.48;101997.63;2048650;28;46743;-64
2023/01/30 02:17:23;;;;;;;;;29.00;26.25;;;;;7.55;64.26;101991.44;2044714;28;46379;-63
2023/01/30 02:18:24;;;;;;;;;24.20;22.80;;;;;7.54;64.63;101991.44;2044876;28;46838;-63
2023/01/30 02:19:39;;;;;;;;;26.80;25.20;;;;;7.54;64.58;101994.09;2044944;28;45820;-63
2023/01/30 02:21:11;;;;;;;;;26.00;23.80;;;;;7.54;64.48;101988.78;2045148;28;46503;-64
2023/01/30 02:22:11;;;;;;;;;28.00;27.00;;;;;7.53;64.68;101993.19;2052956;28;47157;-62
2023/01/30 02:23:30;;;;;;;;;31.50;26.25;;;;;7.54;64.66;101986.16;2060604;28;46504;-64
2023/01/30 02:25:04;;;;;;;;;28.00;24.40;;;;;7.53;64.57;101985.28;2054898;28;45308;-63
2023/01/30 02:26:25;;;;;;;;;29.20;29.20;;;;;7.53;64.34;101980.00;2054155;28;46837;-63
2023/01/30 02:27:48;;;;;;;;;31.40;27.60;;;;;7.50;64.55;101981.72;2054182;28;46931;-65
2023/01/30 02:29:02;;;;;;;;;30.40;29.00;;;;;7.49;64.41;101979.91;2054225;28;46994;-64
2023/01/30 02:30:21;;;;;;;;;29.80;28.00;;;;;7.51;64.56;101986.13;2062171;28;47079;-65
2023/01/30 02:31:34;;;;;;;;;25.80;24.80;;;;;7.51;64.49;101992.28;2062527;28;46083;-64
2023/01/30 02:32:49;;;;;;;;;27.60;23.80;;;;;7.52;64.49;101988.78;2076310;28;45590;-64
2023/01/30 02:34:08;;;;;;;;;27.00;27.00;;;;;7.53;64.30;101989.66;2076645;28;46366;-64
2023/01/30 02:35:24;;;;;;;;;26.20;25.00;;;;;7.51;64.46;101994.06;2069949;28;46614;-64
2023/01/30 02:36:54;;;;;;;;;32.00;29.60;;;;;7.51;64.53;101988.78;2062454;28;45908;-65
2023/01/30 02:38:17;;;;;;;;;27.60;23.80;;;;;7.52;64.43;101983.50;2045965;28;46962;-64
2023/01/30 02:39:37;;;;;;;;;23.80;22.80;;;;;7.53;64.24;101981.75;2046487;28;46849;-65
2023/01/30 02:41:06;;;;;;;;;24.80;22.60;;;;;7.52;64.44;101983.50;2046379;28;47003;-63
2023/01/30 02:42:39;;;;;;;;;30.80;28.20;;;;;7.51;64.31;101979.09;2045220;28;45906;-64
2023/01/30 02:43:45;;;;;;;;;31.60;30.20;;;;;7.51;64.45;101981.72;2037449;28;46662;-63
2023/01/30 02:45:04;;;;;;;;;28.00;26.60;;;;;7.52;64.71;101982.63;2038158;28;46194;-62
2023/01/30 02:46:16;;;;;;;;;24.40;23.80;;;;;7.51;64.27;101979.09;2034649;28;46580;-63
2023/01/30 02:47:52;;;;;;;;;24.60;24.60;;;;;7.52;64.50;101978.22;2037578;28;46574;-63
2023/01/30 02:49:06;;;;;;;;;26.40;24.80;;;;;7.54;64.56;101980.88;2022110;29;46943;-64
2023/01/30 02:50:12;;;;;;;;;23.80;22.20;;;;;7.54;64.30;101987.03;2021925;29;46915;-64
2023/01/30 02:51:39;;;;;;;;;31.40;29.00;;;;;7.54;64.56;101994.09;2022127;29;46523;-64
2023/01/30 02:52:41;;;;;;;;;20.20;17.80;;;;;7.54;64.36;101996.72;2006594;29;46507;-64
2023/01/30 02:53:42;;;;;;;;;29.60;24.80;;;;;7.54;64.40;101996.72;2012224;29;46466;-63
2023/01/30 02:54:42;;;;;;;;;27.75;23.50;;;;;7.55;64.37;101987.94;2014603;29;46276;-64
2023/01/30 02:55:42;;;;;;;;;30.25;29.50;;;;;7.54;64.57;101989.69;2014406;29;46271;-64
2023/01/30 02:56:56;;;;;;;;;25.25;23.75;;;;;7.56;64.67;101987.06;2014554;29;45956;-64
2023/01/30 02:57:56;;;;;;;;;25.20;24.20;;;;;7.55;64.72;101991.44;2014395;29;46449;-64
2023/01/30 02:59:04;;;;;;;;;27.50;24.50;;;;;7.57;64.53;101988.81;2016286;29;46291;-64
2023/01/30 03:00:05;;;;;;;;;23.40;22.20;;;;;7.58;64.60;101988.84;2030124;29;46367;-64
2023/01/30 03:01:09;;;;;;;;;28.60;26.00;;;;;7.57;64.60;101989.72;2027108;28;46025;-64
2023/01/30 03:02:30;;;;;;;;;27.40;26.20;;;;;7.59;64.57;101987.97;2029779;29;46985;-64
2023/01/30 03:03:37;;;;;;;;;24.20;22.80;;;;;7.62;64.66;101992.38;2029946;29;46696;-64
2023/01/30 03:04:37;;;;;;;;;23.20;22.20;;;;;7.63;64.28;101997.72;2029730;29;45791;-64
2023/01/30 03:06:14;;;;;;;;;28.00;25.75;;;;;7.65;64.22;102001.25;2024795;29;47126;-64
2023/01/30 03:07:26;;;;;;;;;24.40;23.00;;;;;7.62;64.26;101995.03;2021782;29;46884;-63
2023/01/30 03:08:32;;;;;;;;;25.60;25.20;;;;;7.60;64.44;101994.13;2029437;29;46969;-64
2023/01/30 03:10:07;;;;;;;;;26.40;24.00;;;;;7.57;64.47;101994.09;2026238;29;46211;-65
2023/01/30 03:11:09;;;;;;;;;25.60;24.00;;;;;7.54;64.24;101996.72;1991051;29;47067;-65
2023/01/30 03:12:30;;;;;;;;;29.00;26.20;;;;;7.51;64.35;101987.00;1995281;29;46732;-65
2023/01/30 03:13:43;;;;;;;;;25.80;25.20;;;;;7.51;64.61;101991.41;2013514;29;45843;-64
2023/01/30 03:14:51;;;;;;;;;30.80;28.00;;;;;7.48;64.67;101986.06;2014202;29;46436;-63
2023/01/30 03:16:02;;;;;;;;;26.00;23.60;;;;;7.47;64.72;101986.94;2026069;29;46822;-63
2023/01/30 03:17:05;;;;;;;;;30.00;27.60;;;;;7.48;64.81;101988.72;2029960;29;46182;-63
2023/01/30 03:18:06;;;;;;;;;27.00;25.00;;;;;7.47;64.97;101993.09;2030368;29;45649;-64
2023/01/30 03:19:11;;;;;;;;;32.00;26.80;;;;;7.48;64.80;101986.06;2029819;29;46634;-64
2023/01/30 03:20:14;;;;;;;;;27.20;25.80;;;;;7.48;65.19;101991.34;2029975;29;45836;-64
2023/01/30 03:21:14;;;;;;;;;29.80;24.40;;;;;7.49;65.42;101993.13;2039482;28;46992;-64
2023/01/30 03:22:14;;;;;;;;;30.50;25.50;;;;;7.48;64.98;101994.00;2038911;28;46682;-65
2023/01/30 03:23:15;;;;;;;;;25.50;23.75;;;;;7.50;65.01;101994.94;2042900;28;46635;-63
2023/01/30 03:24:16;;;;;;;;;28.75;24.25;;;;;7.49;64.91;101996.66;2029731;29;46549;-64
2023/01/30 03:25:20;;;;;;;;;23.80;22.60;;;;;7.50;65.12;102000.22;2030315;29;47069;-66
2023/01/30 03:26:27;;;;;;;;;25.20;23.20;;;;;7.50;65.10;102000.22;2027022;28;47012;-64
2023/01/30 03:27:29;;;;;;;;;23.80;23.00;;;;;7.49;65.20;102003.69;2029164;28;46634;-62
2023/01/30 03:28:29;;;;;;;;;27.00;25.80;;;;;7.48;65.47;102001.91;2028385;29;46593;-64
2023/01/30 03:29:30;;;;;;;;;25.75;25.75;;;;;7.47;65.44;102000.16;2028902;28;46416;-64
2023/01/30 03:30:30;;;;;;;;;27.75;27.75;;;;;7.47;65.91;101992.22;2040899;28;46806;-65
2023/01/30 03:31:30;;;;;;;;;28.00;24.50;;;;;7.47;65.47;101992.22;2044741;28;45872;-64
2023/01/30 03:32:31;;;;;;;;;24.25;24.25;;;;;7.46;66.00;101983.41;2085769;28;45558;-63
2023/01/30 03:33:31;;;;;;;;;27.00;24.50;;;;;7.47;65.39;101977.25;2085650;28;46534;-64
2023/01/30 03:34:31;;;;;;;;;33.50;29.00;;;;;7.47;66.01;101984.31;2038515;28;46542;-64
2023/01/30 03:35:32;;;;;;;;;30.75;27.00;;;;;7.48;65.85;101978.16;2044371;28;46826;-64
2023/01/30 03:36:32;;;;;;;;;27.00;25.50;;;;;7.48;66.06;101983.44;2044623;28;46494;-64
2023/01/30 03:37:32;;;;;;;;;26.75;25.25;;;;;7.48;66.32;101986.94;2044560;28;46471;-63
2023/01/30 03:38:34;;;;;;;;;30.50;28.50;;;;;7.49;66.24;101985.19;2044493;28;46772;-64
2023/01/30 03:39:35;;;;;;;;;27.40;27.00;;;;;7.50;66.26;101987.88;2044215;28;47303;-63
2023/01/30 03:40:35;;;;;;;;;25.75;24.75;;;;;7.50;66.11;101982.59;2044773;28;46994;-62
2023/01/30 03:41:35;;;;;;;;;30.75;27.00;;;;;7.49;66.27;101982.56;2044715;28;46242;-62
2023/01/30 03:42:36;;;;;;;;;32.50;30.75;;;;;7.49;66.13;101983.44;2044396;28;45706;-63
2023/01/30 03:43:36;;;;;;;;;21.50;21.50;;;;;7.49;66.19;101994.00;2044396;28;45999;-62
2023/01/30 03:44:36;;;;;;;;;23.00;22.50;;;;;7.48;66.17;101986.06;2044394;28;47896;-63
2023/01/30 03:45:37;;;;;;;;;27.00;27.00;;;;;7.48;66.38;101983.44;2043473;28;46650;-64
2023/01/30 03:46:37;;;;;;;;;26.25;24.50;;;;;7.47;66.08;101977.25;2051865;28;45908;-64
2023/01/30 03:47:37;;;;;;;;;24.50;23.50;;;;;7.47;65.81;101979.00;2048505;28;46478;-62
2023/01/30 03:48:38;;;;;;;;;27.00;24.00;;;;;7.44;65.67;101974.59;2052168;28;46452;-63
2023/01/30 03:49:38;;;;;;;;;25.25;25.25;;;;;7.43;65.99;101974.59;2069083;28;45973;-62
2023/01/30 03:50:38;;;;;;;;;30.75;25.50;;;;;7.40;65.85;101967.50;2061299;28;46667;-61
2023/01/30 03:51:39;;;;;;;;;28.50;25.50;;;;;7.38;66.58;101963.97;2060897;28;46355;-63
2023/01/30 03:52:39;;;;;;;;;28.50;26.50;;;;;7.37;66.27;101963.09;2064304;28;45936;-62
2023/01/30 03:53:39;;;;;;;;;26.25;22.00;;;;;7.37;66.39;101962.22;2053298;28;46512;-63
2023/01/30 03:54:40;;;;;;;;;25.25;24.25;;;;;7.36;66.69;101960.41;2061325;28;46183;-63
2023/01/30 03:55:40;;;;;;;;;30.75;29.25;;;;;7.35;66.55;101958.63;2065226;28;45947;-64
2023/01/30 03:56:40;;;;;;;;;29.50;24.50;;;;;7.36;66.61;101965.69;2069937;27;46315;-63
2023/01/30 03:57:41;;;;;;;;;29.25;26.50;;;;;7.37;66.63;101964.84;2069369;28;46394;-64
2023/01/30 03:58:41;;;;;;;;;21.75;18.50;;;;;7.37;66.89;101951.66;2067546;28;45170;-63
2023/01/30 03:59:41;;;;;;;;;33.00;30.00;;;;;7.40;66.94;101953.44;2061233;28;46218;-64
2023/01/30 04:00:42;;;;;;;;;24.75;24.75;;;;;7.38;66.57;101951.66;2068318;28;46261;-63
2023/01/30 04:01:42;;;;;;;;;30.25;25.50;;;;;7.40;66.72;101953.44;2074094;28;46873;-63
2023/01/30 04:02:43;;;;;;;;;25.75;23.25;;;;;7.41;66.68;101955.19;2077854;27;46652;-62
2023/01/30 04:03:43;;;;;;;;;25.50;25.50;;;;;7.41;66.80;101958.72;2097608;27;46512;-61
2023/01/30 04:04:43;;;;;;;;;29.00;24.25;;;;;7.42;66.52;101955.22;2096757;27;45810;-63
2023/01/30 04:05:44;;;;;;;;;26.00;25.00;;;;;7.41;66.90;101949.91;2061050;28;46498;-63
2023/01/30 04:06:44;;;;;;;;;25.75;25.75;;;;;7.42;66.52;101956.97;2052843;28;45681;-61
2023/01/30 04:07:44;;;;;;;;;24.25;24.25;;;;;7.42;66.87;101957.84;2052791;28;46762;-64
2023/01/30 04:08:45;;;;;;;;;28.75;25.75;;;;;7.42;66.92;101955.22;2052496;28;46176;-64
2023/01/30 04:09:45;;;;;;;;;24.00;24.00;;;;;7.44;66.67;101947.28;2056338;28;45985;-63
2023/01/30 04:10:45;;;;;;;;;30.25;23.75;;;;;7.43;66.91;101956.09;2061149;28;45774;-63
2023/01/30 04:11:45;;;;;;;;;22.75;22.75;;;;;7.41;66.84;101949.91;2075611;28;46291;-63
2023/01/30 04:12:46;;;;;;;;;27.00;26.25;;;;;7.41;66.80;101948.16;2076200;28;46620;-64
2023/01/30 04:13:46;;;;;;;;;28.75;26.25;;;;;7.42;66.80;101949.03;2069981;28;46424;-64
2023/01/30 04:14:47;;;;;;;;;28.25;21.50;;;;;7.43;67.07;101946.41;2093921;28;46219;-63
2023/01/30 04:15:47;;;;;;;;;25.75;25.75;;;;;7.44;67.25;101957.88;2086236;28;46358;-62
2023/01/30 04:16:47;;;;;;;;;26.75;26.50;;;;;7.45;67.02;101949.94;2086633;28;46021;-63
2023/01/30 04:17:48;;;;;;;;;26.00;25.75;;;;;7.44;66.81;101950.81;2094508;28;46214;-63
2023/01/30 04:18:48;;;;;;;;;32.00;28.50;;;;;7.43;66.98;101951.69;2094699;28;46355;-63
2023/01/30 04:19:48;;;;;;;;;22.50;20.50;;;;;7.44;66.81;101958.75;2096644;28;46752;-62
2023/01/30 04:20:49;;;;;;;;;27.00;24.50;;;;;7.42;66.63;101955.22;2089314;28;48037;-62
2023/01/30 04:21:49;;;;;;;;;28.75;27.00;;;;;7.41;66.67;101949.91;2094973;28;45503;-63
2023/01/30 04:22:49;;;;;;;;;27.50;26.00;;;;;7.37;66.85;101947.25;2098247;28;45618;-63
2023/01/30 04:23:50;;;;;;;;;25.00;22.75;;;;;7.35;66.82;101951.59;2102402;28;46558;-63
2023/01/30 04:24:50;;;;;;;;;27.00;24.00;;;;;7.34;67.00;101952.47;2085936;28;46417;-65
2023/01/30 04:25:50;;;;;;;;;25.75;24.25;;;;;7.33;67.17;101944.53;2086341;28;46275;-62
2023/01/30 04:26:51;;;;;;;;;31.50;26.75;;;;;7.32;66.91;101946.28;2086487;28;46366;-64
2023/01/30 04:27:51;;;;;;;;;28.75;27.75;;;;;7.32;67.59;101943.66;2086225;28;46769;-63
2023/01/30 04:28:52;;;;;;;;;29.25;29.25;;;;;7.33;67.49;101942.78;2087950;28;46676;-64
2023/01/30 04:29:52;;;;;;;;;30.00;25.00;;;;;7.35;67.04;101938.41;2094552;28;46758;-63
2023/01/30 04:30:53;;;;;;;;;29.25;25.50;;;;;7.36;67.06;101936.63;2094742;28;46802;-63
2023/01/30 04:31:53;;;;;;;;;25.25;23.00;;;;;7.36;67.04;101934.88;2094369;28;46750;-63
2023/01/30 04:32:53;;;;;;;;;27.25;25.25;;;;;7.36;67.16;101934.00;2092839;28;46699;-63
2023/01/30 04:33:53;;;;;;;;;28.50;27.00;;;;;7.36;67.55;101932.25;2094642;28;46419;-63
2023/01/30 04:34:54;;;;;;;;;24.75;23.00;;;;;7.37;67.74;101927.88;2094246;28;45576;-64
2023/01/30 04:35:57;;;;;;;;;25.25;23.75;;;;;7.37;67.49;101923.47;2094644;28;45327;-64
2023/01/30 04:36:57;;;;;;;;;29.60;26.80;;;;;7.37;67.24;101920.84;2094066;28;46826;-63
2023/01/30 04:37:58;;;;;;;;;25.50;25.25;;;;;7.36;67.98;101911.13;2094836;28;46540;-63
2023/01/30 04:38:58;;;;;;;;;27.75;25.50;;;;;7.37;67.74;101922.59;2094379;28;46490;-64
2023/01/30 04:39:58;;;;;;;;;36.75;27.25;;;;;7.37;68.28;101923.47;2094494;28;46223;-64
2023/01/30 04:40:59;;;;;;;;;22.00;22.00;;;;;7.37;68.20;101923.47;2085954;28;46224;-64
2023/01/30 04:41:59;;;;;;;;;25.25;23.75;;;;;7.37;68.12;101925.25;2085971;28;46775;-64
2023/01/30 04:43:00;;;;;;;;;27.50;23.25;;;;;7.37;68.02;101928.75;2091990;28;48518;-63
2023/01/30 04:44:00;;;;;;;;;26.25;24.75;;;;;7.37;68.10;101933.16;2094162;28;46799;-64
2023/01/30 04:45:00;;;;;;;;;25.25;22.25;;;;;7.36;67.70;101926.97;2091794;28;46257;-64
2023/01/30 04:46:01;;;;;;;;;26.00;26.00;;;;;7.34;67.56;101927.81;2092477;28;44965;-64
2023/01/30 04:47:01;;;;;;;;;30.75;29.00;;;;;7.34;67.78;101936.63;2071250;28;45071;-65
2023/01/30 04:48:01;;;;;;;;;24.75;23.25;;;;;7.33;67.64;101933.97;2070836;28;45635;-64
2023/01/30 04:49:02;;;;;;;;;25.00;24.00;;;;;7.33;68.02;101940.13;2070650;28;46230;-63
2023/01/30 04:50:02;;;;;;;;;24.25;22.50;;;;;7.34;68.35;101936.63;2063262;28;45692;-63
2023/01/30 04:51:03;;;;;;;;;29.75;28.25;;;;;7.34;68.43;101941.91;2062203;28;46620;-64
2023/01/30 04:52:03;;;;;;;;;24.00;24.00;;;;;7.36;68.32;101937.53;2062471;28;46678;-64
2023/01/30 04:53:04;;;;;;;;;24.75;24.00;;;;;7.38;68.17;101942.84;2062408;28;46674;-64
2023/01/30 04:54:05;;;;;;;;;32.00;28.00;;;;;7.39;68.21;101947.25;2063484;28;46666;-64
2023/01/30 04:55:06;;;;;;;;;23.20;21.40;;;;;7.40;68.21;101935.81;2070765;28;46433;-65
2023/01/30 04:56:06;;;;;;;;;25.25;23.25;;;;;7.42;68.31;101938.47;2070253;28;46439;-64
2023/01/30 04:57:06;;;;;;;;;28.75;24.75;;;;;7.44;68.17;101942.91;2071078;27;45120;-63
2023/01/30 04:58:07;;;;;;;;;25.25;25.25;;;;;7.45;67.94;101944.66;2070724;28;45604;-63
2023/01/30 04:59:07;;;;;;;;;30.75;26.50;;;;;7.47;68.23;101942.94;2070784;28;46713;-62
2023/01/30 05:00:08;;;;;;;;;16.50;16.00;;;;;7.49;68.14;101940.28;2070334;28;46440;-62